Time;durP1;ratioP1;P1;durP2;ratioP2;P2;SDS_P1;SDS_P2;PMS_P1;PMS_P2;Temp;Humidity;BMP_temperature;BMP_pressure;BME280_temperature;BME280_humidity;BME280_pressure;Samples;Min_cycle;Max_cycle;Signal;HPM_P1;HPM_P2
2022/09/11 00:01:30;;;;;;;15.48;9.23;;;14.50;99.90;;;;;;5101014;28;20116;-65
2022/09/11 00:03:57;;;;;;;10.95;8.95;;;14.50;99.90;;;;;;5076193;28;20056;-63
2022/09/11 00:06:24;;;;;;;13.65;10.02;;;14.50;99.90;;;;;;5110778;28;20052;-62
2022/09/11 00:09:01;;;;;;;176.20;155.65;;;14.40;99.90;;;;;;5100582;28;20127;-71
2022/09/11 00:11:32;;;;;;;84.45;60.00;;;14.50;99.90;;;;;;5103911;28;20043;-68
2022/09/11 00:14:00;;;;;;;43.42;32.83;;;14.50;99.90;;;;;;5094251;28;20040;-70
2022/09/11 00:16:33;;;;;;;21.23;16.35;;;14.40;99.90;;;;;;5095666;28;20487;-69
2022/09/11 00:19:05;;;;;;;16.60;12.73;;;14.40;99.90;;;;;;5096844;28;20055;-68
2022/09/11 00:21:32;;;;;;;12.98;10.57;;;14.30;99.90;;;;;;5091664;28;20495;-70
2022/09/11 00:23:59;;;;;;;12.88;11.20;;;14.30;99.90;;;;;;5076263;28;20109;-69
2022/09/11 00:26:26;;;;;;;12.32;10.77;;;14.30;99.90;;;;;;5092877;28;20048;-69
2022/09/11 00:28:54;;;;;;;12.60;10.20;;;14.30;99.90;;;;;;5101626;28;20048;-69
2022/09/11 00:31:26;;;;;;;13.45;9.38;;;14.20;99.90;;;;;;5077385;28;20058;-68
2022/09/11 00:33:54;;;;;;;12.60;9.88;;;14.20;99.90;;;;;;5095254;28;20090;-70
2022/09/11 00:36:28;;;;;;;12.93;9.73;;;14.20;99.90;;;;;;5103661;28;20077;-68
2022/09/11 00:38:55;;;;;;;11.68;9.68;;;14.10;99.90;;;;;;5111416;28;20050;-70
2022/09/11 00:41:27;;;;;;;11.73;9.07;;;14.10;99.90;;;;;;5111298;28;20136;-69
2022/09/11 00:44:01;;;;;;;12.20;9.60;;;14.10;99.90;;;;;;5094393;28;20052;-68
2022/09/11 00:46:58;;;;;;;11.63;8.95;;;14.10;99.90;;;;;;5097045;28;20407;-69
2022/09/11 00:49:32;;;;;;;12.73;10.27;;;14.00;99.90;;;;;;5071304;28;20052;-69
2022/09/11 00:52:02;;;;;;;17.95;12.18;;;14.00;99.90;;;;;;5098342;28;20446;-70
2022/09/11 00:54:32;;;;;;;12.63;9.05;;;14.00;99.90;;;;;;5107507;28;20056;-69
2022/09/11 00:57:00;;;;;;;11.60;9.80;;;14.00;99.90;;;;;;5083209;28;20052;-69
2022/09/11 00:59:27;;;;;;;12.93;9.43;;;14.00;99.90;;;;;;5091051;28;20462;-70
2022/09/11 01:01:54;;;;;;;13.35;9.10;;;13.90;99.90;;;;;;5090626;28;20074;-70
2022/09/11 01:04:22;;;;;;;11.32;8.95;;;13.90;99.90;;;;;;5091255;28;20062;-68
2022/09/11 01:06:53;;;;;;;11.88;9.13;;;13.90;99.90;;;;;;5086101;28;20089;-70
2022/09/11 01:09:20;;;;;;;12.20;8.90;;;13.90;99.90;;;;;;5062493;28;20048;-69
2022/09/11 01:11:59;;;;;;;14.15;9.32;;;13.90;99.90;;;;;;5075197;28;20411;-70
2022/09/11 01:14:29;;;;;;;12.70;9.75;;;13.80;99.90;;;;;;5085953;28;20059;-70
2022/09/11 01:17:24;;;;;;;12.45;8.80;;;13.80;99.90;;;;;;5102234;28;20051;-68
2022/09/11 01:20:10;;;;;;;11.80;9.88;;;13.80;99.90;;;;;;5110039;28;20398;-69
2022/09/11 01:23:01;;;;;;;10.65;9.40;;;13.80;99.90;;;;;;5110728;28;20044;-69
2022/09/11 01:25:55;;;;;;;11.70;9.18;;;13.80;99.90;;;;;;5112046;28;20497;-69
2022/09/11 01:28:39;;;;;;;13.10;9.23;;;13.70;99.90;;;;;;5070198;28;20055;-69
2022/09/11 01:31:09;;;;;;;12.93;9.60;;;13.70;99.90;;;;;;5090165;28;20763;-69
2022/09/11 01:33:39;;;;;;;11.95;9.32;;;13.70;99.90;;;;;;5075805;28;20062;-70
2022/09/11 01:36:06;;;;;;;11.77;10.18;;;13.70;99.90;;;;;;5100282;28;20044;-70
2022/09/11 01:38:39;;;;;;;10.52;9.43;;;13.60;99.90;;;;;;5110744;28;20093;-69
2022/09/11 01:41:19;;;;;;;12.60;8.95;;;13.60;99.90;;;;;;5111297;28;20073;-69
2022/09/11 01:43:51;;;;;;;12.75;9.60;;;13.60;99.90;;;;;;5100511;28;20487;-70
2022/09/11 01:46:21;;;;;;;11.48;9.20;;;13.60;99.90;;;;;;5080177;28;20044;-70
2022/09/11 01:48:58;;;;;;;10.38;9.15;;;13.60;99.90;;;;;;5090700;28;20040;-70
2022/09/11 01:51:27;;;;;;;12.45;9.48;;;13.50;99.90;;;;;;5091715;28;20126;-69
2022/09/11 01:53:54;;;;;;;15.18;9.80;;;13.60;99.90;;;;;;5086014;28;20048;-70
2022/09/11 01:56:22;;;;;;;10.70;9.43;;;13.60;99.90;;;;;;5078850;28;20051;-70
2022/09/11 01:58:50;;;;;;;10.85;9.63;;;13.60;99.90;;;;;;5085222;28;20048;-69
2022/09/11 02:01:19;;;;;;;13.18;10.23;;;13.50;99.90;;;;;;5073638;28;20096;-69
2022/09/11 02:03:52;;;;;;;11.48;9.52;;;13.50;99.90;;;;;;5075548;28;20097;-70
2022/09/11 02:06:26;;;;;;;16.40;10.50;;;13.50;99.90;;;;;;5074922;28;20135;-69
2022/09/11 02:08:57;;;;;;;16.27;10.73;;;13.50;99.90;;;;;;5081432;28;20039;-68
2022/09/11 02:11:24;;;;;;;12.73;9.63;;;13.40;99.90;;;;;;5104095;28;20112;-69
2022/09/11 02:13:58;;;;;;;11.10;9.90;;;13.40;99.90;;;;;;5083361;28;20040;-69
2022/09/11 02:16:36;;;;;;;13.35;10.18;;;13.40;99.90;;;;;;5073839;28;20060;-69
2022/09/11 02:19:05;;;;;;;11.90;9.55;;;13.40;99.90;;;;;;5074699;28;20062;-69
2022/09/11 02:21:32;;;;;;;13.23;9.95;;;13.40;99.90;;;;;;5093915;28;20051;-68
2022/09/11 02:23:59;;;;;;;13.43;9.30;;;13.40;99.90;;;;;;5103579;28;20048;-69
2022/09/11 02:26:28;;;;;;;14.15;9.95;;;13.40;99.90;;;;;;5108185;28;20461;-69
2022/09/11 02:28:55;;;;;;;13.38;9.88;;;13.30;99.90;;;;;;5086163;28;20207;-69
2022/09/11 02:31:22;;;;;;;13.07;10.52;;;13.30;99.90;;;;;;5078478;28;20511;-68
2022/09/11 02:33:49;;;;;;;11.18;9.98;;;13.30;99.90;;;;;;5091950;28;20044;-69
2022/09/11 02:36:16;;;;;;;11.48;9.55;;;13.30;99.90;;;;;;5093761;28;20044;-69
2022/09/11 02:39:06;;;;;;;13.10;9.77;;;13.20;99.90;;;;;;5091703;28;20052;-69
2022/09/11 02:42:03;;;;;;;11.70;10.30;;;13.20;99.90;;;;;;5066672;28;20100;-69
2022/09/11 02:44:58;;;;;;;12.68;9.20;;;13.20;99.90;;;;;;5100277;28;20051;-69
2022/09/11 02:48:04;;;;;;;12.57;10.00;;;13.20;99.90;;;;;;5100675;28;20559;-69
2022/09/11 02:50:52;;;;;;;12.57;8.80;;;13.20;99.90;;;;;;5015312;28;20097;-69
2022/09/11 02:53:41;;;;;;;13.50;9.70;;;13.10;99.90;;;;;;5025643;28;20452;-69
2022/09/11 02:56:12;;;;;;;15.95;9.40;;;13.10;99.90;;;;;;5071905;28;20384;-70
2022/09/11 02:58:46;;;;;;;17.77;8.70;;;13.10;99.90;;;;;;5093276;28;20596;-70
2022/09/11 03:01:12;;;;;;;13.30;9.02;;;13.10;99.90;;;;;;5095593;28;20431;-69
2022/09/11 03:03:44;;;;;;;10.60;8.55;;;13.10;99.90;;;;;;5101177;28;20054;-69
2022/09/11 03:06:23;;;;;;;10.68;8.25;;;13.10;99.90;;;;;;5112466;28;20047;-70
2022/09/11 03:08:51;;;;;;;15.10;9.23;;;13.10;99.90;;;;;;5093753;28;20048;-70
2022/09/11 03:11:18;;;;;;;9.15;8.10;;;13.00;99.90;;;;;;5106881;28;20172;-70
2022/09/11 03:13:45;;;;;;;9.82;8.50;;;13.00;99.90;;;;;;5084978;28;20044;-70
2022/09/11 03:16:12;;;;;;;12.25;8.90;;;13.00;99.90;;;;;;5095904;28;20132;-70
2022/09/11 03:18:39;;;;;;;12.95;8.40;;;13.00;99.90;;;;;;5113648;28;20086;-69
2022/09/11 03:21:06;;;;;;;9.98;7.90;;;13.00;99.90;;;;;;5105909;28;20090;-69
2022/09/11 03:23:33;;;;;;;9.95;7.82;;;13.00;99.90;;;;;;5107548;28;20086;-69
2022/09/11 03:26:00;;;;;;;9.85;7.93;;;13.00;99.90;;;;;;5096510;28;20388;-70
2022/09/11 03:28:29;;;;;;;9.88;7.75;;;13.00;99.90;;;;;;5096962;28;20048;-69
2022/09/11 03:30:57;;;;;;;10.63;7.28;;;13.10;99.90;;;;;;5077582;28;20048;-69
2022/09/11 03:33:24;;;;;;;10.00;6.93;;;13.20;99.90;;;;;;5096336;28;20086;-70
2022/09/11 03:35:51;;;;;;;11.43;7.90;;;13.20;99.90;;;;;;5105062;28;20104;-68
2022/09/11 03:38:18;;;;;;;9.45;7.25;;;13.30;99.90;;;;;;5106110;27;20052;-69
2022/09/11 03:40:45;;;;;;;12.55;7.32;;;13.40;99.90;;;;;;5094073;28;20048;-70
2022/09/11 03:43:12;;;;;;;10.27;8.27;;;13.40;99.90;;;;;;5106219;28;20491;-69
2022/09/11 03:45:39;;;;;;;18.27;8.10;;;13.50;99.90;;;;;;5097116;28;20040;-69
2022/09/11 03:48:06;;;;;;;14.20;8.05;;;13.60;99.90;;;;;;5107543;28;20040;-69
2022/09/11 03:50:33;;;;;;;17.85;9.85;;;13.60;99.90;;;;;;5106099;28;20048;-69
2022/09/11 03:53:00;;;;;;;22.38;9.50;;;13.70;99.90;;;;;;5097588;28;20055;-69
2022/09/11 03:55:27;;;;;;;38.25;12.68;;;13.70;99.90;;;;;;5102716;28;20040;-69
2022/09/11 03:57:54;;;;;;;47.97;14.43;;;13.80;99.90;;;;;;5094025;28;20109;-69
2022/09/11 04:00:21;;;;;;;68.95;17.17;;;13.80;99.90;;;;;;5096384;28;20044;-69
2022/09/11 04:02:48;;;;;;;84.22;16.10;;;13.80;99.90;;;;;;5114052;28;20055;-69
2022/09/11 04:05:15;;;;;;;67.35;17.50;;;13.80;99.90;;;;;;5107040;28;20051;-69
2022/09/11 04:07:42;;;;;;;85.32;17.45;;;13.80;99.90;;;;;;5107992;28;20047;-69
2022/09/11 04:10:09;;;;;;;89.10;16.60;;;13.80;99.90;;;;;;5091690;28;20051;-69
2022/09/11 04:12:36;;;;;;;55.72;17.17;;;13.90;99.90;;;;;;5094215;28;20112;-69
2022/09/11 04:15:03;;;;;;;58.67;16.33;;;13.90;99.90;;;;;;5102976;28;20040;-68
2022/09/11 04:17:30;;;;;;;79.90;18.65;;;14.00;99.90;;;;;;5111643;28;20107;-68
2022/09/11 04:19:57;;;;;;;55.50;16.90;;;14.00;99.90;;;;;;5110794;28;20554;-69
2022/09/11 04:22:25;;;;;;;73.55;17.95;;;14.00;99.90;;;;;;5112811;28;20100;-69
2022/09/11 04:24:52;;;;;;;59.22;17.17;;;14.10;99.90;;;;;;5091157;28;20492;-68
2022/09/11 04:27:22;;;;;;;91.45;20.25;;;14.10;99.90;;;;;;5097748;28;20052;-69
2022/09/11 04:29:49;;;;;;;71.53;19.67;;;14.20;99.90;;;;;;5079556;28;20048;-70
2022/09/11 04:32:16;;;;;;;58.97;18.50;;;14.20;99.90;;;;;;5110381;28;20062;-69
2022/09/11 04:34:43;;;;;;;48.67;17.13;;;14.20;99.90;;;;;;5088378;28;20074;-69
2022/09/11 04:37:10;;;;;;;71.13;18.17;;;14.20;99.90;;;;;;5092036;28;20105;-69
2022/09/11 04:39:37;;;;;;;42.20;16.85;;;14.30;99.90;;;;;;5101023;28;20039;-68
2022/09/11 04:42:04;;;;;;;59.25;17.85;;;14.30;99.90;;;;;;5099703;28;20395;-68
2022/09/11 04:44:31;;;;;;;91.03;19.65;;;14.30;99.90;;;;;;5097722;28;20722;-69
2022/09/11 04:46:58;;;;;;;40.63;15.57;;;14.30;99.90;;;;;;5093028;28;20059;-69
2022/09/11 04:49:25;;;;;;;26.75;15.63;;;14.40;99.90;;;;;;5059814;28;20113;-69
2022/09/11 04:51:52;;;;;;;61.60;17.80;;;14.40;99.90;;;;;;5095291;28;20040;-69
2022/09/11 04:54:22;;;;;;;66.82;19.33;;;14.40;99.90;;;;;;5098616;28;20047;-69
2022/09/11 04:56:49;;;;;;;51.03;17.55;;;14.50;99.90;;;;;;5067991;28;20055;-68
2022/09/11 04:59:18;;;;;;;63.45;19.40;;;14.50;99.90;;;;;;5098263;28;20044;-70
2022/09/11 05:01:45;;;;;;;45.53;18.40;;;14.50;99.90;;;;;;5097527;28;20051;-69
2022/09/11 05:04:13;;;;;;;86.25;20.80;;;14.50;99.90;;;;;;5099227;28;20341;-69
2022/09/11 05:06:41;;;;;;;47.30;19.52;;;14.50;99.90;;;;;;5109525;28;20048;-69
2022/09/11 05:09:08;;;;;;;140.95;23.20;;;14.60;99.90;;;;;;5112668;28;20108;-70
2022/09/11 05:11:37;;;;;;;67.68;18.50;;;14.60;99.90;;;;;;5078135;28;20487;-70
2022/09/11 05:14:04;;;;;;;111.57;21.75;;;14.60;99.90;;;;;;5103630;28;20051;-70
2022/09/11 05:16:35;;;;;;;74.18;19.20;;;14.60;99.90;;;;;;5100100;28;20055;-70
2022/09/11 05:19:03;;;;;;;75.70;19.13;;;14.60;99.90;;;;;;5094829;28;20088;-70
2022/09/11 05:21:30;;;;;;;98.57;20.10;;;14.60;99.90;;;;;;5107636;28;20051;-69
2022/09/11 05:23:58;;;;;;;92.97;19.17;;;14.60;99.90;;;;;;5092804;28;20098;-68
2022/09/11 05:26:27;;;;;;;73.68;17.02;;;14.60;99.90;;;;;;5102135;28;20043;-70
2022/09/11 05:28:55;;;;;;;62.72;17.45;;;14.60;99.90;;;;;;5089635;28;20101;-70
2022/09/11 05:31:22;;;;;;;46.35;15.57;;;14.60;99.90;;;;;;5078622;28;20056;-70
2022/09/11 05:33:49;;;;;;;56.30;18.33;;;14.60;99.90;;;;;;5105798;28;20056;-72
2022/09/11 05:36:15;;;;;;;78.63;17.48;;;14.60;99.90;;;;;;5096990;28;20048;-71
2022/09/11 05:38:43;;;;;;;67.97;17.02;;;14.60;99.90;;;;;;5087488;28;20047;-69
2022/09/11 05:41:10;;;;;;;60.22;17.23;;;14.60;99.90;;;;;;5102867;28;20584;-69
2022/09/11 05:43:38;;;;;;;47.55;16.85;;;14.60;99.90;;;;;;5083046;28;20047;-69
2022/09/11 05:46:05;;;;;;;58.13;16.33;;;14.60;99.90;;;;;;5095005;28;20080;-70
2022/09/11 05:48:33;;;;;;;61.60;17.70;;;14.60;99.90;;;;;;5058590;28;20083;-69
2022/09/11 05:51:01;;;;;;;52.35;17.10;;;14.60;99.90;;;;;;5085657;28;20047;-70
2022/09/11 05:53:32;;;;;;;59.47;16.92;;;14.60;99.90;;;;;;5097590;28;20101;-70
2022/09/11 05:56:27;;;;;;;52.30;16.58;;;14.60;99.90;;;;;;5099089;28;20048;-70
2022/09/11 05:58:54;;;;;;;54.90;15.43;;;14.60;99.90;;;;;;5097177;28;20123;-70
2022/09/11 06:01:23;;;;;;;49.45;17.33;;;14.50;99.90;;;;;;5104360;28;20047;-69
2022/09/11 06:03:51;;;;;;;27.63;16.55;;;14.50;99.90;;;;;;5079619;28;20055;-69
2022/09/11 06:06:19;;;;;;;29.50;17.15;;;14.60;99.90;;;;;;5096552;28;20437;-69
2022/09/11 06:08:46;;;;;;;22.80;15.88;;;14.50;99.90;;;;;;5101908;28;20105;-69
2022/09/11 06:11:14;;;;;;;22.80;14.43;;;14.60;99.90;;;;;;5073148;28;20048;-70
2022/09/11 06:13:43;;;;;;;26.17;15.50;;;14.60;99.90;;;;;;5098817;28;20439;-69
2022/09/11 06:16:11;;;;;;;24.38;14.20;;;14.70;99.90;;;;;;5082264;28;20079;-69
2022/09/11 06:18:47;;;;;;;22.50;16.63;;;14.70;99.90;;;;;;5096743;28;20040;-69
2022/09/11 06:21:18;;;;;;;26.55;16.20;;;14.80;99.90;;;;;;5097825;28;20074;-70
2022/09/11 06:23:49;;;;;;;29.75;15.82;;;14.80;99.90;;;;;;5106180;28;20513;-69
2022/09/11 06:26:17;;;;;;;26.00;16.60;;;15.00;99.90;;;;;;5101289;28;20106;-69
2022/09/11 06:28:44;;;;;;;36.88;16.25;;;15.10;99.90;;;;;;5089674;28;20040;-70
2022/09/11 06:31:15;;;;;;;55.83;17.27;;;15.10;99.90;;;;;;5101484;28;20101;-69
2022/09/11 06:33:42;;;;;;;36.55;15.77;;;15.20;99.90;;;;;;5102599;28;20047;-69
2022/09/11 06:36:10;;;;;;;41.92;14.90;;;15.20;99.90;;;;;;5072306;28;20051;-69
2022/09/11 06:38:37;;;;;;;53.63;16.83;;;15.30;99.90;;;;;;5087232;28;20122;-69
2022/09/11 06:41:06;;;;;;;73.68;18.13;;;15.30;99.90;;;;;;5102006;28;20475;-69
2022/09/11 06:43:33;;;;;;;101.73;17.07;;;15.40;99.90;;;;;;5104985;28;20040;-70
2022/09/11 06:46:08;;;;;;;87.10;16.75;;;15.50;99.90;;;;;;5101535;28;20383;-70
2022/09/11 06:48:34;;;;;;;55.47;14.35;;;15.50;99.90;;;;;;5095069;28;20055;-70
2022/09/11 06:51:03;;;;;;;44.63;13.77;;;15.50;99.90;;;;;;5094124;28;20542;-70
2022/09/11 06:53:29;;;;;;;50.97;14.20;;;15.60;99.90;;;;;;5083224;28;20044;-69
2022/09/11 06:56:01;;;;;;;25.65;13.57;;;15.60;99.90;;;;;;5097110;28;20044;-70
2022/09/11 06:58:29;;;;;;;34.25;13.93;;;15.70;99.90;;;;;;5076601;28;20052;-70
2022/09/11 07:01:02;;;;;;;16.77;13.57;;;15.70;99.90;;;;;;5095317;28;20044;-69
2022/09/11 07:03:30;;;;;;;18.42;15.05;;;15.70;99.90;;;;;;5094696;28;20384;-69
2022/09/11 07:05:57;;;;;;;17.73;14.90;;;15.80;99.90;;;;;;5108744;27;20121;-70
2022/09/11 07:08:24;;;;;;;15.23;13.35;;;15.80;99.90;;;;;;5096589;28;20044;-70
2022/09/11 07:10:51;;;;;;;17.25;15.45;;;15.90;99.90;;;;;;5101877;28;20438;-69
2022/09/11 07:13:18;;;;;;;18.40;16.40;;;15.90;99.90;;;;;;5101591;28;20055;-72
2022/09/11 07:15:48;;;;;;;21.02;16.67;;;16.00;99.90;;;;;;5097023;28;20048;-67
2022/09/11 07:18:17;;;;;;;109.68;97.93;;;16.10;99.90;;;;;;5102888;28;20044;-73
2022/09/11 07:20:44;;;;;;;68.43;61.33;;;16.20;99.90;;;;;;5100067;28;20055;-69
2022/09/11 07:23:10;;;;;;;33.47;29.65;;;16.30;99.90;;;;;;5105281;28;20353;-72
2022/09/11 07:25:39;;;;;;;24.30;20.83;;;16.40;99.90;;;;;;5103731;28;20562;-71
2022/09/11 07:28:06;;;;;;;21.35;18.58;;;16.50;99.90;;;;;;5095224;28;20040;-72
2022/09/11 07:30:34;;;;;;;20.88;17.60;;;16.60;99.90;;;;;;5094764;28;20044;-72
2022/09/11 07:33:01;;;;;;;18.50;16.50;;;16.60;99.90;;;;;;5101469;28;20048;-72
2022/09/11 07:35:27;;;;;;;19.50;16.55;;;16.70;99.90;;;;;;5109991;28;20051;-72
2022/09/11 07:37:54;;;;;;;19.55;16.45;;;16.70;99.90;;;;;;5082516;28;20048;-72
2022/09/11 07:40:21;;;;;;;17.63;15.10;;;16.80;99.90;;;;;;5104425;28;20514;-71
2022/09/11 07:42:48;;;;;;;16.75;14.85;;;16.90;99.90;;;;;;5103555;28;20048;-71
2022/09/11 07:45:16;;;;;;;20.63;15.70;;;17.00;99.90;;;;;;5100502;28;20055;-72
2022/09/11 07:47:48;;;;;;;20.05;15.52;;;17.00;99.90;;;;;;5101280;28;20072;-71
2022/09/11 07:50:16;;;;;;;16.20;14.07;;;17.10;99.90;;;;;;5107114;28;20120;-72
2022/09/11 07:52:43;;;;;;;17.23;15.35;;;17.20;99.90;;;;;;5095560;28;20054;-71
2022/09/11 07:55:10;;;;;;;18.33;14.23;;;17.30;99.90;;;;;;5099452;28;20052;-72
2022/09/11 07:57:37;;;;;;;17.02;14.30;;;17.30;99.90;;;;;;5099394;28;20055;-71
2022/09/11 08:00:05;;;;;;;15.77;14.10;;;17.40;99.90;;;;;;5083217;28;20089;-72
2022/09/11 08:02:32;;;;;;;16.15;14.25;;;17.50;99.90;;;;;;5099841;28;20040;-71
2022/09/11 08:05:01;;;;;;;16.90;13.50;;;17.60;99.90;;;;;;5104134;28;20164;-71
2022/09/11 08:07:29;;;;;;;16.95;13.40;;;17.70;99.90;;;;;;5101274;28;20044;-72
2022/09/11 08:09:56;;;;;;;14.40;12.90;;;17.80;99.90;;;;;;5102406;28;20491;-71
2022/09/11 08:12:46;;;;;;;28.00;24.67;;;17.80;99.90;;;;;;5099978;28;20093;-70
2022/09/11 08:15:13;;;;;;;59.28;52.20;;;17.90;99.90;;;;;;5084184;28;20133;-72
2022/09/11 08:17:40;;;;;;;17.55;15.65;;;18.00;99.90;;;;;;5100072;28;20467;-71
2022/09/11 08:20:08;;;;;;;15.18;12.82;;;18.00;99.90;;;;;;5104926;28;20483;-70
2022/09/11 08:22:35;;;;;;;14.43;12.03;;;18.00;99.90;;;;;;5101302;28;20396;-71
2022/09/11 08:25:02;;;;;;;13.57;12.00;;;18.10;99.90;;;;;;5108298;28;20104;-71
2022/09/11 08:27:29;;;;;;;13.77;12.35;;;18.10;99.90;;;;;;5097630;28;20039;-71
2022/09/11 08:29:56;;;;;;;13.75;10.98;;;18.20;99.90;;;;;;5105578;28;20043;-71
2022/09/11 08:32:23;;;;;;;14.68;11.57;;;18.20;99.90;;;;;;5099301;28;20047;-71
2022/09/11 08:34:50;;;;;;;14.05;11.77;;;18.20;99.90;;;;;;5106229;28;20043;-71
2022/09/11 08:37:18;;;;;;;11.85;10.65;;;18.30;99.90;;;;;;5086038;28;20044;-70
2022/09/11 08:39:45;;;;;;;14.70;10.52;;;18.40;99.90;;;;;;5102330;28;20050;-70
2022/09/11 08:42:13;;;;;;;15.25;10.27;;;18.40;99.90;;;;;;5104682;28;20044;-71
2022/09/11 08:44:50;;;;;;;10.50;8.98;;;18.50;99.90;;;;;;5103599;28;20039;-70
2022/09/11 08:47:24;;;;;;;10.52;8.13;;;18.50;99.90;;;;;;5084733;28;20055;-71
2022/09/11 08:50:31;;;;;;;10.35;7.88;;;18.60;99.90;;;;;;5082622;28;20113;-69
2022/09/11 08:52:59;;;;;;;13.98;8.60;;;18.70;99.90;;;;;;5010190;28;20061;-71
2022/09/11 08:55:38;;;;;;;10.75;8.50;;;18.90;99.90;;;;;;5100073;27;20117;-69
2022/09/11 08:58:29;;;;;;;9.00;8.10;;;18.90;99.90;;;;;;5089779;28;20101;-69
2022/09/11 09:01:24;;;;;;;11.73;7.90;;;19.00;99.90;;;;;;5098769;28;20288;-70
2022/09/11 09:03:57;;;;;;;9.70;8.52;;;19.00;99.90;;;;;;5107734;28;20040;-72
2022/09/11 09:06:56;;;;;;;9.77;8.05;;;19.10;99.90;;;;;;5096427;28;20404;-69
2022/09/11 09:09:31;;;;;;;8.02;7.20;;;19.10;99.90;;;;;;5081070;28;20069;-69
2022/09/11 09:12:07;;;;;;;12.23;8.77;;;19.10;99.90;;;;;;5089458;28;20073;-69
2022/09/11 09:14:54;;;;;;;11.35;8.45;;;19.20;99.90;;;;;;5096625;28;20126;-68
2022/09/11 09:17:26;;;;;;;10.30;6.75;;;19.30;99.90;;;;;;5094904;28;20064;-76
2022/09/11 09:20:05;;;;;;;8.07;6.22;;;19.30;99.90;;;;;;5073128;28;20044;-67
2022/09/11 09:22:45;;;;;;;8.65;5.95;;;19.30;99.90;;;;;;5092639;28;20040;-64
2022/09/11 09:25:14;;;;;;;9.27;7.00;;;19.30;99.90;;;;;;5099400;28;20048;-64
2022/09/11 09:28:07;;;;;;;8.93;6.20;;;19.40;99.90;;;;;;5081391;28;20518;-63
2022/09/11 09:30:41;;;;;;;10.10;6.05;;;19.40;99.90;;;;;;5062971;28;20165;-63
2022/09/11 09:33:19;;;;;;;9.55;5.72;;;19.40;99.90;;;;;;5083711;28;20044;-65
2022/09/11 09:35:47;;;;;;;6.78;4.80;;;19.40;99.90;;;;;;5097824;28;20048;-63
2022/09/11 09:38:15;;;;;;;6.80;5.18;;;19.40;99.90;;;;;;5102087;28;20047;-64
2022/09/11 09:41:00;;;;;;;74.55;58.72;;;19.50;99.90;;;;;;5093756;28;20040;-63
2022/09/11 09:44:04;;;;;;;18.10;15.93;;;19.60;99.90;;;;;;5098417;28;20044;-64
2022/09/11 09:46:40;;;;;;;9.55;6.97;;;19.60;99.90;;;;;;5092033;28;20063;-63
2022/09/11 09:49:13;;;;;;;7.13;6.40;;;19.70;99.90;;;;;;5081731;28;20499;-64
2022/09/11 09:51:39;;;;;;;9.93;5.80;;;19.70;99.90;;;;;;5073838;28;20043;-63
2022/09/11 09:54:07;;;;;;;6.20;5.05;;;19.80;99.90;;;;;;5066323;28;20044;-62
2022/09/11 09:56:36;;;;;;;10.15;5.95;;;19.90;99.90;;;;;;5078250;28;20048;-63
2022/09/11 09:59:14;;;;;;;10.20;6.65;;;20.00;99.90;;;;;;5089614;28;20043;-63
2022/09/11 10:01:45;;;;;;;9.85;5.88;;;20.00;99.90;;;;;;5103336;28;20050;-62
2022/09/11 10:04:22;;;;;;;7.28;4.65;;;20.10;99.90;;;;;;5081753;28;20042;-65
2022/09/11 10:06:54;;;;;;;6.72;5.32;;;20.20;99.90;;;;;;5103305;28;20483;-63
2022/09/11 10:09:25;;;;;;;9.65;6.18;;;20.30;99.90;;;;;;5105109;28;20372;-62
2022/09/11 10:12:04;;;;;;;7.75;5.43;;;20.40;99.90;;;;;;5090578;28;20449;-63
2022/09/11 10:14:40;;;;;;;;;;;20.60;99.90;;;;;;5097331;28;20503;-63
2022/09/11 10:17:32;;;;;;;12.27;6.28;;;20.70;99.90;;;;;;5102709;28;19919;-63
2022/09/11 10:20:21;;;;;;;8.82;4.80;;;20.80;99.90;;;;;;5103952;28;20052;-63
2022/09/11 10:22:49;;;;;;;8.18;5.45;;;21.00;99.90;;;;;;5100492;28;20076;-63
2022/09/11 10:25:19;;;;;;;7.72;5.13;;;21.10;99.90;;;;;;5106596;28;20410;-63
2022/09/11 10:27:58;;;;;;;8.90;5.35;;;21.20;99.90;;;;;;5089743;28;20130;-64
2022/09/11 10:30:32;;;;;;;;;;;21.30;99.90;;;;;;5103521;28;20051;-63
2022/09/11 10:33:17;;;;;;;6.38;4.40;;;21.40;99.90;;;;;;5094935;28;19924;-63
2022/09/11 10:35:54;;;;;;;5.15;3.75;;;21.50;99.90;;;;;;5090576;28;20100;-63
2022/09/11 10:38:32;;;;;;;7.70;4.60;;;21.60;99.90;;;;;;5100797;28;20048;-63
2022/09/11 10:41:08;;;;;;;4.88;3.88;;;21.60;99.90;;;;;;5095210;28;20127;-63
2022/09/11 10:43:55;;;;;;;6.05;4.72;;;21.70;99.90;;;;;;5101435;28;20051;-64
2022/09/11 10:46:41;;;;;;;7.20;4.15;;;21.70;99.90;;;;;;5102165;28;20048;-63
2022/09/11 10:49:20;;;;;;;5.20;3.35;;;21.70;99.90;;;;;;5087336;28;20056;-63
2022/09/11 10:52:08;;;;;;;4.47;3.20;;;21.80;99.90;;;;;;5105823;28;20044;-65
2022/09/11 10:55:14;;;;;;;6.90;3.72;;;21.70;99.90;;;;;;5103413;28;20047;-64
2022/09/11 10:57:49;;;;;;;6.57;3.60;;;21.70;99.90;;;;;;5092905;28;20048;-66
2022/09/11 11:00:24;;;;;;;4.28;3.38;;;21.60;99.90;;;;;;5085183;28;20048;-63
2022/09/11 11:02:56;;;;;;;4.93;3.38;;;21.50;99.90;;;;;;5095798;28;20036;-63
2022/09/11 11:05:35;;;;;;;5.40;3.72;;;21.60;99.90;;;;;;5100937;28;20047;-64
2022/09/11 11:08:23;;;;;;;5.47;4.00;;;21.60;99.90;;;;;;5097559;28;20078;-62
2022/09/11 11:11:01;;;;;;;4.57;3.13;;;21.70;99.90;;;;;;5102857;28;20540;-63
2022/09/11 11:13:48;;;;;;;4.25;3.15;;;21.70;99.90;;;;;;5102586;27;20094;-63
2022/09/11 11:16:21;;;;;;;4.18;2.80;;;21.90;99.90;;;;;;5100667;28;20052;-63
2022/09/11 11:19:05;;;;;;;4.80;3.83;;;21.90;99.90;;;;;;5096918;28;20052;-61
2022/09/11 11:21:47;;;;;;;8.80;6.10;;;21.90;99.90;;;;;;5105071;28;20047;-62
2022/09/11 11:24:48;;;;;;;4.07;3.17;;;22.00;99.90;;;;;;5084657;28;20051;-64
2022/09/11 11:27:42;;;;;;;13.40;6.30;;;22.00;99.90;;;;;;5095092;28;20060;-63
2022/09/11 11:30:20;;;;;;;12.18;5.43;;;22.00;99.90;;;;;;5104287;28;20059;-64
2022/09/11 11:32:47;;;;;;;14.00;6.28;;;22.00;99.90;;;;;;5089828;28;20066;-68
2022/09/11 11:35:24;;;;;;;5.90;3.45;;;21.90;99.90;;;;;;5093785;28;20055;-64
2022/09/11 11:37:54;;;;;;;8.30;4.38;;;21.90;99.90;;;;;;5101361;28;20349;-64
2022/09/11 11:40:30;;;;;;;21.77;4.88;;;22.00;99.90;;;;;;5101822;28;20093;-63
2022/09/11 11:43:10;;;;;;;4.88;3.25;;;22.00;99.90;;;;;;5068566;28;20048;-62
2022/09/11 11:45:54;;;;;;;5.32;3.05;;;22.00;99.90;;;;;;5102546;28;20460;-66
2022/09/11 11:48:39;;;;;;;4.90;3.35;;;22.00;99.90;;;;;;5097904;28;20050;-64
2022/09/11 11:51:08;;;;;;;5.68;3.53;;;22.00;99.90;;;;;;5084852;28;20446;-70
2022/09/11 11:53:43;;;;;;;6.53;3.63;;;22.10;99.90;;;;;;5085433;28;20044;-63
2022/09/11 11:56:27;;;;;;;9.80;8.15;;;22.10;99.90;;;;;;5080168;28;20089;-63
2022/09/11 11:59:03;;;;;;;71.35;64.25;;;22.20;99.90;;;;;;5100188;28;20045;-66
2022/09/11 12:01:41;;;;;;;9.00;6.85;;;22.40;99.90;;;;;;5085420;28;20506;-64
2022/09/11 12:04:08;;;;;;;;;;;22.50;99.90;;;;;;5102378;28;20487;-64
2022/09/11 12:06:35;;;;;;;6.38;3.85;;;22.60;99.90;;;;;;5104265;28;19935;-63
2022/09/11 12:09:02;;;;;;;6.60;3.60;;;22.70;99.90;;;;;;5105090;28;20043;-65
2022/09/11 12:11:30;;;;;;;7.28;3.30;;;22.90;99.90;;;;;;5091630;28;20048;-64
2022/09/11 12:13:57;;;;;;;3.97;2.80;;;23.00;99.90;;;;;;5084310;28;20429;-64
2022/09/11 12:16:32;;;;;;;7.55;3.40;;;23.10;99.90;;;;;;5081341;28;20131;-64
2022/09/11 12:19:21;;;;;;;4.95;2.88;;;23.20;99.90;;;;;;5081088;28;20123;-63
2022/09/11 12:21:54;;;;;;;4.55;3.15;;;23.30;99.90;;;;;;5103788;28;20433;-63
2022/09/11 12:24:48;;;;;;;6.85;2.97;;;23.30;99.90;;;;;;5106146;28;20086;-63
2022/09/11 12:27:35;;;;;;;4.80;3.15;;;23.20;99.90;;;;;;5093149;28;20047;-65
2022/09/11 12:30:17;;;;;;;5.40;3.10;;;23.30;99.90;;;;;;5102704;28;20442;-64
2022/09/11 12:33:01;;;;;;;4.25;3.15;;;23.40;99.90;;;;;;5094381;28;20043;-65
2022/09/11 12:35:54;;;;;;;4.78;2.60;;;23.40;99.90;;;;;;5097664;28;20096;-64
2022/09/11 12:38:30;;;;;;;6.20;2.75;;;23.40;99.90;;;;;;5091944;28;20483;-64
2022/09/11 12:41:00;;;;;;;4.82;2.83;;;23.40;99.90;;;;;;5096306;28;20043;-64
2022/09/11 12:43:36;;;;;;;7.28;3.42;;;23.40;99.90;;;;;;5081005;28;20548;-64
2022/09/11 12:46:07;;;;;;;3.72;2.28;;;23.40;99.90;;;;;;5102291;28;20086;-64
2022/09/11 12:48:41;;;;;;;17.08;14.55;;;23.30;99.90;;;;;;5104095;28;20074;-67
2022/09/11 12:51:28;;;;;;;22.83;20.70;;;23.30;99.90;;;;;;5076014;28;20078;-68
2022/09/11 12:54:03;;;;;;;5.43;4.28;;;23.20;99.90;;;;;;5105479;28;20051;-64
2022/09/11 12:56:33;;;;;;;11.40;10.25;;;23.20;99.90;;;;;;5075832;28;20044;-64
2022/09/11 12:59:06;;;;;;;5.40;3.13;;;23.20;99.90;;;;;;5099800;28;20067;-63
2022/09/11 13:01:35;;;;;;;5.63;2.53;;;23.20;99.90;;;;;;5078252;28;20139;-65
2022/09/11 13:04:02;;;;;;;3.50;2.45;;;23.30;99.90;;;;;;5108792;28;20042;-64